sensor_id;sensor_type;location;lat;lon;timestamp;pressure;altitude;pressure_sealevel;temperature;humidity
50057;BME280;36875;49.468;11.200;2023-04-05T00:00:27;98542.16;;;21.53;35.54
50057;BME280;36875;49.468;11.200;2023-04-05T00:02:53;98535.88;;;21.52;35.53
50057;BME280;36875;49.468;11.200;2023-04-05T00:05:18;98535.34;;;21.50;35.15
50057;BME280;36875;49.468;11.200;2023-04-05T00:07:53;98534.84;;;21.48;35.35
50057;BME280;36875;49.468;11.200;2023-04-05T00:10:20;98533.25;;;21.47;35.44
50057;BME280;36875;49.468;11.200;2023-04-05T00:12:46;98526.19;;;21.41;35.49
50057;BME280;36875;49.468;11.200;2023-04-05T00:15:11;98530.06;;;21.40;35.48
50057;BME280;36875;49.468;11.200;2023-04-05T00:17:37;98530.06;;;21.40;35.53
50057;BME280;36875;49.468;11.200;2023-04-05T00:20:03;98526.00;;;21.37;35.31
50057;BME280;36875;49.468;11.200;2023-04-05T00:22:31;98527.13;;;21.36;35.45
50057;BME280;36875;49.468;11.200;2023-04-05T00:25:00;98523.88;;;21.34;35.28
50057;BME280;36875;49.468;11.200;2023-04-05T00:27:27;98517.06;;;21.32;35.47
50057;BME280;36875;49.468;11.200;2023-04-05T00:29:53;98517.41;;;21.30;35.39
50057;BME280;36875;49.468;11.200;2023-04-05T00:32:18;98513.13;;;21.24;35.42
50057;BME280;36875;49.468;11.200;2023-04-05T00:34:44;98517.22;;;21.27;35.53
50057;BME280;36875;49.468;11.200;2023-04-05T00:37:10;98507.47;;;21.21;35.29
50057;BME280;36875;49.468;11.200;2023-04-05T00:39:37;98509.59;;;21.24;35.49
50057;BME280;36875;49.468;11.200;2023-04-05T00:42:02;98508.28;;;21.21;35.46
50057;BME280;36875;49.468;11.200;2023-04-05T00:44:32;98501.78;;;21.17;35.32
50057;BME280;36875;49.468;11.200;2023-04-05T00:46:59;98505.66;;;21.16;35.36
50057;BME280;36875;49.468;11.200;2023-04-05T00:49:25;98502.41;;;21.14;35.31
50057;BME280;36875;49.468;11.200;2023-04-05T00:51:51;98496.09;;;21.13;35.51
50057;BME280;36875;49.468;11.200;2023-04-05T00:54:17;98497.53;;;21.11;35.31
50057;BME280;36875;49.468;11.200;2023-04-05T00:56:43;98500.28;;;21.11;35.42
50057;BME280;36875;49.468;11.200;2023-04-05T00:59:09;98496.53;;;21.07;35.30
50057;BME280;36875;49.468;11.200;2023-04-05T01:01:38;98489.72;;;21.04;35.46
50057;BME280;36875;49.468;11.200;2023-04-05T01:04:05;98495.53;;;21.03;35.37
50057;BME280;36875;49.468;11.200;2023-04-05T01:06:42;98493.88;;;21.02;35.16
50057;BME280;36875;49.468;11.200;2023-04-05T01:09:16;98492.56;;;20.99;35.28
50057;BME280;36875;49.468;11.200;2023-04-05T01:11:46;98488.50;;;20.96;35.35
50057;BME280;36875;49.468;11.200;2023-04-05T01:14:13;98482.53;;;20.94;35.46
50057;BME280;36875;49.468;11.200;2023-04-05T01:16:39;98480.91;;;20.93;35.23
50057;BME280;36875;49.468;11.200;2023-04-05T01:19:05;98467.53;;;20.92;35.10
50057;BME280;36875;49.468;11.200;2023-04-05T01:21:50;98470.88;;;20.89;35.39
50057;BME280;36875;49.468;11.200;2023-04-05T01:24:30;98465.69;;;20.87;35.37
50057;BME280;36875;49.468;11.200;2023-04-05T01:27:06;98461.38;;;20.86;35.39
50057;BME280;36875;49.468;11.200;2023-04-05T01:29:44;98457.59;;;20.82;35.04
50057;BME280;36875;49.468;11.200;2023-04-05T01:32:20;98458.72;;;20.81;35.28
50057;BME280;36875;49.468;11.200;2023-04-05T01:34:51;98452.75;;;20.79;35.29
50057;BME280;36875;49.468;11.200;2023-04-05T01:37:21;98450.59;;;20.76;35.20
50057;BME280;36875;49.468;11.200;2023-04-05T01:39:49;98448.66;;;20.76;35.32
50057;BME280;36875;49.468;11.200;2023-04-05T01:42:17;98450.59;;;20.76;35.40
50057;BME280;36875;49.468;11.200;2023-04-05T01:44:49;98443.50;;;20.75;35.52
50057;BME280;36875;49.468;11.200;2023-04-05T01:47:15;98439.47;;;20.72;35.27
50057;BME280;36875;49.468;11.200;2023-04-05T01:49:40;98446.88;;;20.72;35.30
50057;BME280;36875;49.468;11.200;2023-04-05T01:52:06;98435.41;;;20.70;35.29
50057;BME280;36875;49.468;11.200;2023-04-05T01:54:31;98434.38;;;20.66;35.23
50057;BME280;36875;49.468;11.200;2023-04-05T01:56:56;98435.72;;;20.68;35.42
50057;BME280;36875;49.468;11.200;2023-04-05T01:59:23;98433.88;;;20.64;35.38
50057;BME280;36875;49.468;11.200;2023-04-05T02:01:50;98437.75;;;20.63;35.43
50057;BME280;36875;49.468;11.200;2023-04-05T02:04:15;98439.97;;;20.60;35.32
50057;BME280;36875;49.468;11.200;2023-04-05T02:06:41;98440.22;;;20.59;35.21
50057;BME280;36875;49.468;11.200;2023-04-05T02:09:06;98439.72;;;20.57;35.37
50057;BME280;36875;49.468;11.200;2023-04-05T02:11:31;98438.91;;;20.56;35.09
50057;BME280;36875;49.468;11.200;2023-04-05T02:13:57;98441.41;;;20.53;35.00
50057;BME280;36875;49.468;11.200;2023-04-05T02:16:23;98443.06;;;20.54;35.27
50057;BME280;36875;49.468;11.200;2023-04-05T02:18:51;98436.06;;;20.48;35.30
50057;BME280;36875;49.468;11.200;2023-04-05T02:21:17;98440.41;;;20.49;35.19
50057;BME280;36875;49.468;11.200;2023-04-05T02:23:42;98447.81;;;20.48;35.19
50057;BME280;36875;49.468;11.200;2023-04-05T02:26:08;98442.63;;;20.47;35.03
50057;BME280;36875;49.468;11.200;2023-04-05T02:28:33;98444.56;;;20.46;35.38
50057;BME280;36875;49.468;11.200;2023-04-05T02:30:59;98439.69;;;20.43;35.14
50057;BME280;36875;49.468;11.200;2023-04-05T02:33:25;98439.19;;;20.41;35.47
50057;BME280;36875;49.468;11.200;2023-04-05T02:35:53;98434.81;;;20.40;35.20
50057;BME280;36875;49.468;11.200;2023-04-05T02:38:18;98430.28;;;20.35;34.99
50057;BME280;36875;49.468;11.200;2023-04-05T02:40:45;98438.19;;;20.37;35.03
50057;BME280;36875;49.468;11.200;2023-04-05T02:43:11;98437.34;;;20.36;35.05
50057;BME280;36875;49.468;11.200;2023-04-05T02:45:36;98427.31;;;20.32;35.31
50057;BME280;36875;49.468;11.200;2023-04-05T02:48:02;98434.44;;;20.33;34.96
50057;BME280;36875;49.468;11.200;2023-04-05T02:50:27;98429.34;;;20.26;35.07
50057;BME280;36875;49.468;11.200;2023-04-05T02:52:54;98431.78;;;20.28;34.92
50057;BME280;36875;49.468;11.200;2023-04-05T02:55:19;98431.78;;;20.28;35.19
50057;BME280;36875;49.468;11.200;2023-04-05T02:57:45;98434.81;;;20.26;35.36
50057;BME280;36875;49.468;11.200;2023-04-05T03:00:11;98434.31;;;20.24;35.16
50057;BME280;36875;49.468;11.200;2023-04-05T03:02:37;98429.94;;;20.23;35.03
50057;BME280;36875;49.468;11.200;2023-04-05T03:05:05;98430.22;;;20.21;35.18
50057;BME280;36875;49.468;11.200;2023-04-05T03:07:32;98424.25;;;20.19;35.01
50057;BME280;36875;49.468;11.200;2023-04-05T03:09:58;98422.66;;;20.18;34.99
50057;BME280;36875;49.468;11.200;2023-04-05T03:12:24;98416.97;;;20.15;34.82
50057;BME280;36875;49.468;11.200;2023-04-05T03:14:50;98421.59;;;20.14;35.04
50057;BME280;36875;49.468;11.200;2023-04-05T03:17:15;98412.91;;;20.12;35.15
50057;BME280;36875;49.468;11.200;2023-04-05T03:19:41;98419.50;;;20.11;34.99
50057;BME280;36875;49.468;11.200;2023-04-05T03:22:07;98420.59;;;20.10;35.08
50057;BME280;36875;49.468;11.200;2023-04-05T03:24:32;98413.81;;;20.08;35.11
50057;BME280;36875;49.468;11.200;2023-04-05T03:27:01;98407.84;;;20.06;35.18
50057;BME280;36875;49.468;11.200;2023-04-05T03:29:28;98407.00;;;20.05;35.18
50057;BME280;36875;49.468;11.200;2023-04-05T03:31:54;98403.75;;;20.03;35.14
50057;BME280;36875;49.468;11.200;2023-04-05T03:34:20;98406.00;;;20.01;34.90
50057;BME280;36875;49.468;11.200;2023-04-05T03:36:49;98404.97;;;19.97;35.21
50057;BME280;36875;49.468;11.200;2023-04-05T03:39:14;98410.94;;;19.99;34.79
50057;BME280;36875;49.468;11.200;2023-04-05T03:41:40;98404.97;;;19.97;34.92
50057;BME280;36875;49.468;11.200;2023-04-05T03:44:07;98411.53;;;19.96;34.79
50057;BME280;36875;49.468;11.200;2023-04-05T03:46:33;98414.59;;;19.94;34.99
50057;BME280;36875;49.468;11.200;2023-04-05T03:49:00;98411.31;;;19.92;34.88
50057;BME280;36875;49.468;11.200;2023-04-05T03:51:26;98415.97;;;19.92;35.28
50057;BME280;36875;49.468;11.200;2023-04-05T03:53:52;98414.66;;;19.89;34.99
50057;BME280;36875;49.468;11.200;2023-04-05T03:56:18;98417.69;;;19.88;35.09
50057;BME280;36875;49.468;11.200;2023-04-05T03:58:44;98416.66;;;19.83;35.02
50057;BME280;36875;49.468;11.200;2023-04-05T04:01:11;98424.56;;;19.85;34.91
50057;BME280;36875;49.468;11.200;2023-04-05T04:03:37;98421.28;;;19.83;35.23
50057;BME280;36875;49.468;11.200;2023-04-05T04:06:02;98417.75;;;19.82;35.26
50057;BME280;36875;49.468;11.200;2023-04-05T04:08:28;98422.72;;;19.80;34.95
50057;BME280;36875;49.468;11.200;2023-04-05T04:10:54;98418.66;;;19.78;35.05
50057;BME280;36875;49.468;11.200;2023-04-05T04:13:19;98429.59;;;19.78;34.75
50057;BME280;36875;49.468;11.200;2023-04-05T04:15:45;98419.25;;;19.75;34.86
50057;BME280;36875;49.468;11.200;2023-04-05T04:18:12;98415.72;;;19.74;35.12
50057;BME280;36875;49.468;11.200;2023-04-05T04:20:37;98417.63;;;19.74;34.86
50057;BME280;36875;49.468;11.200;2023-04-05T04:23:03;98411.91;;;19.70;34.85
50057;BME280;36875;49.468;11.200;2023-04-05T04:25:29;98411.91;;;19.70;34.77
50057;BME280;36875;49.468;11.200;2023-04-05T04:27:57;98408.16;;;19.66;34.83
50057;BME280;36875;49.468;11.200;2023-04-05T04:30:22;98412.53;;;19.67;35.17
50057;BME280;36875;49.468;11.200;2023-04-05T04:32:50;98418.28;;;19.65;35.02
50057;BME280;36875;49.468;11.200;2023-04-05T04:35:22;98415.84;;;19.64;35.17
50057;BME280;36875;49.468;11.200;2023-04-05T04:37:54;98418.06;;;19.62;34.68
50057;BME280;36875;49.468;11.200;2023-04-05T04:40:22;98412.88;;;19.60;34.99
50057;BME280;36875;49.468;11.200;2023-04-05T04:42:50;98412.09;;;19.60;35.12
50057;BME280;36875;49.468;11.200;2023-04-05T04:45:17;98410.44;;;19.59;34.70
50057;BME280;36875;49.468;11.200;2023-04-05T04:47:43;98416.53;;;19.56;35.13
50057;BME280;36875;49.468;11.200;2023-04-05T04:50:09;98415.69;;;19.55;35.15
50057;BME280;36875;49.468;11.200;2023-04-05T04:52:37;98413.84;;;19.51;35.36
50057;BME280;36875;49.468;11.200;2023-04-05T04:55:03;98417.91;;;19.53;34.84
50057;BME280;36875;49.468;11.200;2023-04-05T04:57:29;98414.66;;;19.51;35.13
50057;BME280;36875;49.468;11.200;2023-04-05T04:59:55;98410.91;;;19.47;35.17
50057;BME280;36875;49.468;11.200;2023-04-05T05:02:22;98422.34;;;19.49;34.80
50057;BME280;36875;49.468;11.200;2023-04-05T05:04:48;98423.44;;;19.48;35.10
50057;BME280;36875;49.468;11.200;2023-04-05T05:07:13;98424.56;;;19.47;35.29
50057;BME280;36875;49.468;11.200;2023-04-05T05:09:40;98419.16;;;19.42;35.32
50057;BME280;36875;49.468;11.200;2023-04-05T05:12:06;98426.78;;;19.45;35.18
50057;BME280;36875;49.468;11.200;2023-04-05T05:14:31;98436.06;;;19.44;34.84
50057;BME280;36875;49.468;11.200;2023-04-05T05:16:57;98428.16;;;19.42;35.36
50057;BME280;36875;49.468;11.200;2023-04-05T05:19:25;98432.81;;;19.42;35.18
50057;BME280;36875;49.468;11.200;2023-04-05T05:21:51;98420.34;;;19.36;35.17
50057;BME280;36875;49.468;11.200;2023-04-05T05:24:18;98429.84;;;19.38;34.73
50057;BME280;36875;49.468;11.200;2023-04-05T05:26:45;98432.59;;;19.38;34.79
50057;BME280;36875;49.468;11.200;2023-04-05T05:29:10;98429.06;;;19.38;34.86
50057;BME280;36875;49.468;11.200;2023-04-05T05:31:36;98431.78;;;19.38;34.90
50057;BME280;36875;49.468;11.200;2023-04-05T05:34:01;98420.13;;;19.32;35.13
50057;BME280;36875;49.468;11.200;2023-04-05T05:36:27;98432.06;;;19.36;34.71
50057;BME280;36875;49.468;11.200;2023-04-05T05:38:52;98443.28;;;19.35;34.54
50057;BME280;36875;49.468;11.200;2023-04-05T05:41:20;98433.16;;;19.35;34.66
50057;BME280;36875;49.468;11.200;2023-04-05T05:43:48;98443.56;;;19.33;34.82
50057;BME280;36875;49.468;11.200;2023-04-05T05:46:13;98444.69;;;19.32;34.86
50057;BME280;36875;49.468;11.200;2023-04-05T05:48:43;98447.41;;;19.32;34.72
50057;BME280;36875;49.468;11.200;2023-04-05T05:51:09;98442.25;;;19.31;34.73
50057;BME280;36875;49.468;11.200;2023-04-05T05:53:35;98446.91;;;19.30;34.71
50057;BME280;36875;49.468;11.200;2023-04-05T05:56:01;98449.13;;;19.28;34.95
50057;BME280;36875;49.468;11.200;2023-04-05T05:58:26;98453.44;;;19.29;34.75
50057;BME280;36875;49.468;11.200;2023-04-05T06:00:53;98453.75;;;19.27;34.94
50057;BME280;36875;49.468;11.200;2023-04-05T06:03:20;98464.94;;;19.26;34.60
50057;BME280;36875;49.468;11.200;2023-04-05T06:05:50;98460.59;;;19.25;34.83
50057;BME280;36875;49.468;11.200;2023-04-05T06:08:15;98455.44;;;19.23;34.79
50057;BME280;36875;49.468;11.200;2023-04-05T06:10:41;98446.44;;;19.23;34.53
50057;BME280;36875;49.468;11.200;2023-04-05T06:13:06;98454.13;;;19.21;34.77
50057;BME280;36875;49.468;11.200;2023-04-05T06:15:32;98460.66;;;19.20;35.21
50057;BME280;36875;49.468;11.200;2023-04-05T06:17:59;98460.94;;;19.18;35.09
50057;BME280;36875;49.468;11.200;2023-04-05T06:20:25;98447.69;;;19.12;34.89
50057;BME280;36875;49.468;11.200;2023-04-05T06:22:50;98453.88;;;19.17;35.33
50057;BME280;36875;49.468;11.200;2023-04-05T06:25:16;98455.78;;;19.17;35.12
50057;BME280;36875;49.468;11.200;2023-04-05T06:27:42;98455.78;;;19.17;34.81
50057;BME280;36875;49.468;11.200;2023-04-05T06:30:08;98447.59;;;19.17;34.79
50057;BME280;36875;49.468;11.200;2023-04-05T06:32:33;98443.56;;;19.14;34.99
50057;BME280;36875;49.468;11.200;2023-04-05T06:35:01;98446.22;;;19.19;34.97
50057;BME280;36875;49.468;11.200;2023-04-05T06:37:29;98445.94;;;19.21;34.83
50057;BME280;36875;49.468;11.200;2023-04-05T06:39:55;98442.03;;;19.27;34.52
50057;BME280;36875;49.468;11.200;2023-04-05T06:42:21;98451.19;;;19.36;34.74
50057;BME280;36875;49.468;11.200;2023-04-05T06:44:46;98445.28;;;19.48;34.21
50057;BME280;36875;49.468;11.200;2023-04-05T06:47:12;98452.53;;;19.58;34.38
50057;BME280;36875;49.468;11.200;2023-04-05T06:49:37;98446.38;;;19.66;34.25
50057;BME280;36875;49.468;11.200;2023-04-05T06:52:04;98455.56;;;19.75;34.23
50057;BME280;36875;49.468;11.200;2023-04-05T06:54:31;98457.25;;;19.90;33.86
50057;BME280;36875;49.468;11.200;2023-04-05T06:56:56;98457.59;;;20.02;33.91
50057;BME280;36875;49.468;11.200;2023-04-05T06:59:22;98461.88;;;20.09;33.88
50057;BME280;36875;49.468;11.200;2023-04-05T07:01:48;98457.78;;;19.73;34.20
50057;BME280;36875;49.468;11.200;2023-04-05T07:04:13;98460.09;;;19.61;34.68
50057;BME280;36875;49.468;11.200;2023-04-05T07:06:39;98456.84;;;19.59;34.23
50057;BME280;36875;49.468;11.200;2023-04-05T07:09:06;98455.25;;;19.58;34.30
50057;BME280;36875;49.468;11.200;2023-04-05T07:11:31;98453.63;;;19.57;34.36
50057;BME280;36875;49.468;11.200;2023-04-05T07:13:57;98456.84;;;19.59;34.25
50057;BME280;36875;49.468;11.200;2023-04-05T07:16:23;98451.69;;;19.57;34.26
50057;BME280;36875;49.468;11.200;2023-04-05T07:18:49;98451.41;;;19.59;34.75
50057;BME280;36875;49.468;11.200;2023-04-05T07:21:15;98445.94;;;19.59;34.89
50057;BME280;36875;49.468;11.200;2023-04-05T07:23:41;98447.06;;;19.58;34.77
50057;BME280;36875;49.468;11.200;2023-04-05T07:26:07;98447.88;;;19.58;34.87
50057;BME280;36875;49.468;11.200;2023-04-05T07:28:34;98445.94;;;19.59;34.84
50057;BME280;36875;49.468;11.200;2023-04-05T07:31:00;98445.94;;;19.59;35.23
50057;BME280;36875;49.468;11.200;2023-04-05T07:33:25;98445.66;;;19.60;35.18
50057;BME280;36875;49.468;11.200;2023-04-05T07:35:51;98437.75;;;19.59;35.38
50057;BME280;36875;49.468;11.200;2023-04-05T07:38:17;98442.91;;;19.60;35.35
50057;BME280;36875;49.468;11.200;2023-04-05T07:40:43;98443.22;;;19.59;35.13
50057;BME280;36875;49.468;11.200;2023-04-05T07:43:09;98436.72;;;19.55;35.08
50057;BME280;36875;49.468;11.200;2023-04-05T07:45:35;98438.13;;;19.52;35.53
50057;BME280;36875;49.468;11.200;2023-04-05T07:48:01;98435.31;;;19.57;35.41
50057;BME280;36875;49.468;11.200;2023-04-05T07:50:26;98438.81;;;19.63;35.46
50057;BME280;36875;49.468;11.200;2023-04-05T07:52:52;98441.72;;;19.67;35.41
50057;BME280;36875;49.468;11.200;2023-04-05T07:55:17;98437.59;;;19.69;35.51
50057;BME280;36875;49.468;11.200;2023-04-05T07:57:43;98435.94;;;19.73;35.85
50057;BME280;36875;49.468;11.200;2023-04-05T08:00:11;98435.63;;;19.75;35.62
50057;BME280;36875;49.468;11.200;2023-04-05T08:02:37;98432.63;;;19.76;35.66
50057;BME280;36875;49.468;11.200;2023-04-05T08:05:03;98435.56;;;19.80;36.02
50057;BME280;36875;49.468;11.200;2023-04-05T08:07:29;98422.13;;;19.83;35.92
50057;BME280;36875;49.468;11.200;2023-04-05T08:09:55;98429.72;;;19.87;35.72
50057;BME280;36875;49.468;11.200;2023-04-05T08:12:21;98428.84;;;19.91;35.92
50057;BME280;36875;49.468;11.200;2023-04-05T08:14:47;98428.53;;;19.93;35.64
50057;BME280;36875;49.468;11.200;2023-04-05T08:17:14;98430.06;;;19.99;35.51
50057;BME280;36875;49.468;11.200;2023-04-05T08:19:40;98425.13;;;20.01;36.05
50057;BME280;36875;49.468;11.200;2023-04-05T08:22:05;98425.19;;;19.96;36.12
50057;BME280;36875;49.468;11.200;2023-04-05T08:24:30;98425.19;;;19.96;35.87
50057;BME280;36875;49.468;11.200;2023-04-05T08:26:56;98414.59;;;19.94;35.91
50057;BME280;36875;49.468;11.200;2023-04-05T08:29:22;98417.84;;;19.96;36.36
50057;BME280;36875;49.468;11.200;2023-04-05T08:31:47;98414.19;;;20.01;36.05
50057;BME280;36875;49.468;11.200;2023-04-05T08:34:14;98426.31;;;19.95;36.38
50057;BME280;36875;49.468;11.200;2023-04-05T08:36:40;98423.59;;;19.95;36.50
50057;BME280;36875;49.468;11.200;2023-04-05T08:39:05;98422.16;;;19.97;36.31
50057;BME280;36875;49.468;11.200;2023-04-05T08:41:34;98419.72;;;19.96;36.11
50057;BME280;36875;49.468;11.200;2023-04-05T08:44:01;98428.47;;;19.98;36.10
50057;BME280;36875;49.468;11.200;2023-04-05T08:46:29;98420.44;;;20.01;36.24
50057;BME280;36875;49.468;11.200;2023-04-05T08:48:56;98426.25;;;20.00;36.62
50057;BME280;36875;49.468;11.200;2023-04-05T08:51:25;98422.72;;;19.80;36.36
50057;BME280;36875;49.468;11.200;2023-04-05T08:53:52;98419.28;;;19.89;35.02
50057;BME280;36875;49.468;11.200;2023-04-05T08:56:19;98426.09;;;19.91;34.77
50057;BME280;36875;49.468;11.200;2023-04-05T08:58:51;98424.56;;;19.85;35.15
50057;BME280;36875;49.468;11.200;2023-04-05T09:01:18;98429.50;;;19.83;35.16
50057;BME280;36875;49.468;11.200;2023-04-05T09:03:45;98428.09;;;19.86;34.89
50057;BME280;36875;49.468;11.200;2023-04-05T09:06:13;98420.72;;;19.86;35.21
50057;BME280;36875;49.468;11.200;2023-04-05T09:08:41;98420.13;;;19.89;34.98
50057;BME280;36875;49.468;11.200;2023-04-05T09:11:07;98412.66;;;19.95;35.06
50057;BME280;36875;49.468;11.200;2023-04-05T09:13:32;98411.53;;;19.96;35.50
50057;BME280;36875;49.468;11.200;2023-04-05T09:15:59;98409.72;;;19.91;35.44
50057;BME280;36875;49.468;11.200;2023-04-05T09:18:25;98411.31;;;19.92;35.35
50057;BME280;36875;49.468;11.200;2023-04-05T09:20:55;98406.53;;;19.84;35.32
50057;BME280;36875;49.468;11.200;2023-04-05T09:23:21;98415.53;;;19.84;35.56
50057;BME280;36875;49.468;11.200;2023-04-05T09:25:48;98408.56;;;19.78;35.96
50057;BME280;36875;49.468;11.200;2023-04-05T09:28:16;98418.34;;;19.79;36.20
50057;BME280;36875;49.468;11.200;2023-04-05T09:30:45;98412.00;;;19.84;36.05
50057;BME280;36875;49.468;11.200;2023-04-05T09:33:14;98410.72;;;19.95;36.03
50057;BME280;36875;49.468;11.200;2023-04-05T09:35:43;98401.88;;;20.03;35.75
50057;BME280;36875;49.468;11.200;2023-04-05T09:38:08;98402.31;;;19.92;36.26
50057;BME280;36875;49.468;11.200;2023-04-05T09:40:41;98407.44;;;19.79;36.17
50057;BME280;36875;49.468;11.200;2023-04-05T09:43:09;98409.56;;;19.63;36.13
50057;BME280;36875;49.468;11.200;2023-04-05T09:45:37;98401.44;;;19.58;35.96
50057;BME280;36875;49.468;11.200;2023-04-05T09:48:03;98411.34;;;19.73;35.19
50057;BME280;36875;49.468;11.200;2023-04-05T09:50:29;98400.00;;;20.32;35.20
50057;BME280;36875;49.468;11.200;2023-04-05T09:53:05;98397.59;;;20.44;34.90
50057;BME280;36875;49.468;11.200;2023-04-05T09:55:32;98396.56;;;20.54;34.92
50057;BME280;36875;49.468;11.200;2023-04-05T09:57:57;98403.59;;;20.13;35.35
50057;BME280;36875;49.468;11.200;2023-04-05T10:00:25;98407.28;;;19.90;35.65
50057;BME280;36875;49.468;11.200;2023-04-05T10:02:52;98393.31;;;19.91;36.35
50057;BME280;36875;49.468;11.200;2023-04-05T10:05:18;98401.81;;;19.90;37.61
50057;BME280;36875;49.468;11.200;2023-04-05T10:07:47;98414.44;;;19.86;38.28
50057;BME280;36875;49.468;11.200;2023-04-05T10:10:13;98413.66;;;19.85;38.50
50057;BME280;36875;49.468;11.200;2023-04-05T10:12:41;98414.22;;;19.82;37.96
50057;BME280;36875;49.468;11.200;2023-04-05T10:15:07;98411.06;;;19.75;37.85
50057;BME280;36875;49.468;11.200;2023-04-05T10:17:38;98396.13;;;19.67;37.54
50057;BME280;36875;49.468;11.200;2023-04-05T10:20:13;98397.75;;;19.68;37.46
50057;BME280;36875;49.468;11.200;2023-04-05T10:22:42;98399.09;;;19.71;37.26
50057;BME280;36875;49.468;11.200;2023-04-05T10:25:13;98395.31;;;19.67;36.97
50057;BME280;36875;49.468;11.200;2023-04-05T10:27:47;98392.38;;;19.63;36.93
50057;BME280;36875;49.468;11.200;2023-04-05T10:30:14;98397.16;;;19.71;36.90
50057;BME280;36875;49.468;11.200;2023-04-05T10:32:52;98389.94;;;19.80;36.38
50057;BME280;36875;49.468;11.200;2023-04-05T10:35:24;98378.31;;;19.89;36.65
50057;BME280;36875;49.468;11.200;2023-04-05T10:38:03;98391.69;;;19.90;36.59
50057;BME280;36875;49.468;11.200;2023-04-05T10:40:32;98389.47;;;19.92;36.61
50057;BME280;36875;49.468;11.200;2023-04-05T10:42:58;98391.91;;;19.94;36.48
50057;BME280;36875;49.468;11.200;2023-04-05T10:45:26;98395.13;;;19.96;36.56
50057;BME280;36875;49.468;11.200;2023-04-05T10:48:04;98386.94;;;19.96;36.47
50057;BME280;36875;49.468;11.200;2023-04-05T10:50:31;98378.75;;;19.96;36.50
50057;BME280;36875;49.468;11.200;2023-04-05T10:52:59;98382.59;;;19.95;36.78
50057;BME280;36875;49.468;11.200;2023-04-05T10:55:25;98387.84;;;19.91;36.63
50057;BME280;36875;49.468;11.200;2023-04-05T10:57:52;98381.69;;;19.86;36.73
50057;BME280;36875;49.468;11.200;2023-04-05T11:00:20;98381.75;;;19.80;36.67
50057;BME280;36875;49.468;11.200;2023-04-05T11:02:47;98379.59;;;19.77;36.88
50057;BME280;36875;49.468;11.200;2023-04-05T11:05:31;98378.50;;;19.78;36.85
50057;BME280;36875;49.468;11.200;2023-04-05T11:08:02;98376.00;;;19.82;36.92
50057;BME280;36875;49.468;11.200;2023-04-05T11:10:28;98375.41;;;19.85;36.97
50057;BME280;36875;49.468;11.200;2023-04-05T11:13:05;98361.63;;;19.76;36.93
50057;BME280;36875;49.468;11.200;2023-04-05T11:15:31;98362.41;;;19.77;37.00
50057;BME280;36875;49.468;11.200;2023-04-05T11:18:08;98360.28;;;19.74;36.87
50057;BME280;36875;49.468;11.200;2023-04-05T11:20:43;98361.75;;;19.66;37.09
50057;BME280;36875;49.468;11.200;2023-04-05T11:23:14;98366.09;;;19.67;36.73
50057;BME280;36875;49.468;11.200;2023-04-05T11:25:45;98357.91;;;19.67;36.96
50057;BME280;36875;49.468;11.200;2023-04-05T11:28:24;98348.56;;;19.73;36.70
50057;BME280;36875;49.468;11.200;2023-04-05T11:30:51;98353.44;;;19.76;36.59
50057;BME280;36875;49.468;11.200;2023-04-05T11:33:55;98349.56;;;19.77;36.74
50057;BME280;36875;49.468;11.200;2023-04-05T11:36:31;98349.91;;;19.76;36.64
50057;BME280;36875;49.468;11.200;2023-04-05T11:39:23;98346.03;;;19.77;36.73
50057;BME280;36875;49.468;11.200;2023-04-05T11:41:54;98344.09;;;19.77;36.41
50057;BME280;36875;49.468;11.200;2023-04-05T11:44:21;98335.09;;;19.77;36.59
50057;BME280;36875;49.468;11.200;2023-04-05T11:46:47;98340.63;;;19.91;36.69
50057;BME280;36875;49.468;11.200;2023-04-05T11:49:14;98339.03;;;20.03;36.18
50057;BME280;36875;49.468;11.200;2023-04-05T11:51:42;98331.50;;;19.95;36.01
50057;BME280;36875;49.468;11.200;2023-04-05T11:54:08;98335.75;;;19.88;36.64
50057;BME280;36875;49.468;11.200;2023-04-05T11:56:33;98340.19;;;19.83;36.78
50057;BME280;36875;49.468;11.200;2023-04-05T11:58:59;98344.25;;;19.86;36.67
50057;BME280;36875;49.468;11.200;2023-04-05T12:01:25;98337.47;;;19.83;36.44
50057;BME280;36875;49.468;11.200;2023-04-05T12:03:53;98334.59;;;19.75;36.80
50057;BME280;36875;49.468;11.200;2023-04-05T12:06:21;98327.81;;;19.72;36.89
50057;BME280;36875;49.468;11.200;2023-04-05T12:08:48;98324.53;;;19.70;37.00
50057;BME280;36875;49.468;11.200;2023-04-05T12:11:15;98316.66;;;19.69;36.77
50057;BME280;36875;49.468;11.200;2023-04-05T12:13:41;98309.22;;;19.74;36.95
50057;BME280;36875;49.468;11.200;2023-04-05T12:16:09;98317.47;;;19.69;37.08
50057;BME280;36875;49.468;11.200;2023-04-05T12:18:36;98307.66;;;19.68;36.99
50057;BME280;36875;49.468;11.200;2023-04-05T12:21:03;98301.09;;;19.69;36.56
50057;BME280;36875;49.468;11.200;2023-04-05T12:23:30;98309.56;;;19.68;36.89
50057;BME280;36875;49.468;11.200;2023-04-05T12:25:57;98306.63;;;19.64;37.29
50057;BME280;36875;49.468;11.200;2023-04-05T12:28:23;98306.13;;;19.62;37.07
50057;BME280;36875;49.468;11.200;2023-04-05T12:30:49;98305.03;;;19.63;37.00
50057;BME280;36875;49.468;11.200;2023-04-05T12:33:24;98298.81;;;19.57;36.92
50057;BME280;36875;49.468;11.200;2023-04-05T12:35:50;98299.22;;;19.51;37.41
50057;BME280;36875;49.468;11.200;2023-04-05T12:38:16;98294.41;;;19.42;37.27
50057;BME280;36875;49.468;11.200;2023-04-05T12:40:42;98292.88;;;19.36;37.30
50057;BME280;36875;49.468;11.200;2023-04-05T12:43:09;98289.88;;;19.38;36.42
50057;BME280;36875;49.468;11.200;2023-04-05T12:45:35;98288.16;;;19.42;36.03
50057;BME280;36875;49.468;11.200;2023-04-05T12:48:07;98288.06;;;19.47;35.53
50057;BME280;36875;49.468;11.200;2023-04-05T12:50:33;98277.09;;;19.52;35.81